Cornucopia Destiny — WDE6386 — position and weather

sailwx.info

Track history (hours):
 
Tides and Currents Weather Stations Pressure Air Temp Water Temp Dewpoint Dewpoint Depression Visibility Wind Speed Wind Dir Waves Ship Positions

Cornucopia Destiny

Owner: Sultan Wholesale LLC, Keyport, NJ. More information available from US FCC via Universal Licensing System and Coast Guard Vessel Documentation Center.

Last reported at 2017-Jun-23 22:00 UTC. Time now 2017-Jun-23 22:08 UTC.
Position N 40°45' W 074°01'.

Length 39 m.

Type: Passenger vessel. MMSI: 367379570.

Date/timePositionNaut miles runAvg speedWind from/ knotsBaromVisibWave heightAir tempDewpointWater temp
2017-Jun-23 22:00N 40°45' W 074°01'0 0.0
2017-Jun-23 21:30N 40°45' W 074°01'0 0.0
2017-Jun-23 21:00N 40°45' W 074°01'0 0.0
2017-Jun-23 20:29N 40°45' W 074°01'0 0.0
2017-Jun-23 20:00N 40°45' W 074°01'0 0.0
2017-Jun-23 19:30N 40°45' W 074°01'0 0.0
2017-Jun-23 19:00N 40°45' W 074°01'0 0.0
2017-Jun-23 18:30N 40°45' W 074°01'0 0.0
2017-Jun-23 18:00N 40°45' W 074°01'0 0.0
2017-Jun-23 17:30N 40°45' W 074°01'0 0.0
2017-Jun-23 17:00N 40°45' W 074°01'0 0.0
2017-Jun-23 16:30N 40°45' W 074°01'0 0.0
2017-Jun-23 16:00N 40°45' W 074°01'0 0.0
2017-Jun-23 15:30N 40°45' W 074°01'0 0.0
2017-Jun-23 15:00N 40°45' W 074°01'0 0.0
2017-Jun-23 14:00N 40°45' W 074°01'0 0.0
2017-Jun-23 13:30N 40°45' W 074°01'0 0.0
2017-Jun-23 13:00N 40°45' W 074°01'0 0.0
2017-Jun-23 12:30N 40°45' W 074°01'0 0.0
2017-Jun-23 12:00N 40°45' W 074°01'0 0.0
2017-Jun-23 11:30N 40°45' W 074°01'0 0.0
2017-Jun-23 11:00N 40°45' W 074°01'0 0.0
2017-Jun-23 10:30N 40°45' W 074°01'0 0.0
2017-Jun-23 10:00N 40°45' W 074°01'0 0.0
2017-Jun-23 09:30N 40°45' W 074°01'0 0.0
2017-Jun-23 09:00N 40°45' W 074°01'0 0.2
2017-Jun-23 08:30N 40°45' W 074°01'3 5.3
2017-Jun-23 08:00N 40°43' W 074°02'0 0.3
2017-Jun-23 07:30N 40°43' W 074°02'1 1.3
2017-Jun-23 07:00N 40°43' W 074°02'2 3.9
2017-Jun-23 06:30N 40°45' W 074°01'2 3.2
2017-Jun-23 06:00N 40°43' W 074°02'2 3.3
2017-Jun-23 05:30N 40°42' W 074°02'1 2.3
2017-Jun-23 05:00N 40°42' W 074°01'2 4.2
2017-Jun-23 04:30N 40°43' W 073°58'2 3.0
2017-Jun-23 03:59N 40°42' W 074°00'2 4.2
2017-Jun-23 03:30N 40°43' W 074°03'0 0.0
2017-Jun-23 03:00N 40°43' W 074°03'1 2.6
2017-Jun-23 02:30N 40°44' W 074°01'2 4.5
2017-Jun-23 02:00N 40°46' W 074°00'0 0.7
2017-Jun-23 01:30N 40°46' W 074°00'3 5.6
2017-Jun-23 01:00N 40°43' W 074°01'2 3.6
2017-Jun-23 00:30N 40°42' W 074°02'1 1.5
2017-Jun-23 00:00N 40°42' W 074°01'2 4.4
2017-Jun-22 23:29N 40°45' W 074°01'1 2.9
2017-Jun-22 23:00N 40°46' W 074°00'0 0.2
2017-Jun-22 22:30N 40°46' W 074°00'0 0.0
2017-Jun-22 22:00N 40°46' W 074°00'1 2.0
2017-Jun-22 21:30N 40°45' W 074°01'  
2017-Jun-17 06:26N 40°42' W 074°02'  
Track history (hours):
 
Tides and Currents Weather Stations Pressure Air Temp Water Temp Dewpoint Dewpoint Depression Visibility Wind Speed Wind Dir Waves Ship Positions

Cornucopia Destiny

Owner: Sultan Wholesale LLC, Keyport, NJ. More information available from US FCC via Universal Licensing System and Coast Guard Vessel Documentation Center.

Last reported at 2017-Jun-23 22:00 UTC. Time now 2017-Jun-23 22:08 UTC.
Position N 40°45' W 074°01'.

Length 39 m.

Type: Passenger vessel. MMSI: 367379570.

Date/timePositionNaut miles runAvg speedWind from/ knotsBaromVisibWave heightAir tempDewpointWater temp
2017-Jun-23 22:00N 40°45' W 074°01'0 0.0
2017-Jun-23 21:30N 40°45' W 074°01'0 0.0
2017-Jun-23 21:00N 40°45' W 074°01'0 0.0
2017-Jun-23 20:29N 40°45' W 074°01'0 0.0
2017-Jun-23 20:00N 40°45' W 074°01'0 0.0
2017-Jun-23 19:30N 40°45' W 074°01'0 0.0
2017-Jun-23 19:00N 40°45' W 074°01'0 0.0
2017-Jun-23 18:30N 40°45' W 074°01'0 0.0
2017-Jun-23 18:00N 40°45' W 074°01'0 0.0
2017-Jun-23 17:30N 40°45' W 074°01'0 0.0
2017-Jun-23 17:00N 40°45' W 074°01'0 0.0
2017-Jun-23 16:30N 40°45' W 074°01'0 0.0
2017-Jun-23 16:00N 40°45' W 074°01'0 0.0
2017-Jun-23 15:30N 40°45' W 074°01'0 0.0
2017-Jun-23 15:00N 40°45' W 074°01'0 0.0
2017-Jun-23 14:00N 40°45' W 074°01'0 0.0
2017-Jun-23 13:30N 40°45' W 074°01'0 0.0
2017-Jun-23 13:00N 40°45' W 074°01'0 0.0
2017-Jun-23 12:30N 40°45' W 074°01'0 0.0
2017-Jun-23 12:00N 40°45' W 074°01'0 0.0
2017-Jun-23 11:30N 40°45' W 074°01'0 0.0
2017-Jun-23 11:00N 40°45' W 074°01'0 0.0
2017-Jun-23 10:30N 40°45' W 074°01'0 0.0
2017-Jun-23 10:00N 40°45' W 074°01'0 0.0
2017-Jun-23 09:30N 40°45' W 074°01'0 0.0
2017-Jun-23 09:00N 40°45' W 074°01'0 0.2
2017-Jun-23 08:30N 40°45' W 074°01'3 5.3
2017-Jun-23 08:00N 40°43' W 074°02'0 0.3
2017-Jun-23 07:30N 40°43' W 074°02'1 1.3
2017-Jun-23 07:00N 40°43' W 074°02'2 3.9
2017-Jun-23 06:30N 40°45' W 074°01'2 3.2
2017-Jun-23 06:00N 40°43' W 074°02'2 3.3
2017-Jun-23 05:30N 40°42' W 074°02'1 2.3
2017-Jun-23 05:00N 40°42' W 074°01'2 4.2
2017-Jun-23 04:30N 40°43' W 073°58'2 3.0
2017-Jun-23 03:59N 40°42' W 074°00'2 4.2
2017-Jun-23 03:30N 40°43' W 074°03'0 0.0
2017-Jun-23 03:00N 40°43' W 074°03'1 2.6
2017-Jun-23 02:30N 40°44' W 074°01'2 4.5
2017-Jun-23 02:00N 40°46' W 074°00'0 0.7
2017-Jun-23 01:30N 40°46' W 074°00'3 5.6
2017-Jun-23 01:00N 40°43' W 074°01'2 3.6
2017-Jun-23 00:30N 40°42' W 074°02'1 1.5
2017-Jun-23 00:00N 40°42' W 074°01'2 4.4
2017-Jun-22 23:29N 40°45' W 074°01'1 2.9
2017-Jun-22 23:00N 40°46' W 074°00'0 0.2
2017-Jun-22 22:30N 40°46' W 074°00'0 0.0
2017-Jun-22 22:00N 40°46' W 074°00'1 2.0
2017-Jun-22 21:30N 40°45' W 074°01'  
2017-Jun-17 06:26N 40°42' W 074°02'  

Dump ship's entire track history